Time;durP1;ratioP1;P1;durP2;ratioP2;P2;SDS_P1;SDS_P2;PMS_P1;PMS_P2;Temp;Humidity;BMP_temperature;BMP_pressure;BME280_temperature;BME280_humidity;BME280_pressure;Samples;Min_cycle;Max_cycle;Signal;HPM_P1;HPM_P2
2023/02/21 02:17:14;;;;;;;3.60;1.30;;;;;;;9.09;76.52;98198.52;221668;1278;22635;-74
2023/02/21 02:22:58;;;;;;;3.50;1.60;;;;;;;8.99;76.87;98203.13;221635;1254;24193;-73
2023/02/21 02:28:18;;;;;;;2.70;1.20;;;;;;;8.78;78.03;98200.27;221648;1277;22548;-73
2023/02/21 02:33:51;;;;;;;1.60;1.50;;;;;;;8.51;79.49;98202.17;221591;1266;22551;-75
2023/02/21 02:39:19;;;;;;;2.10;1.90;;;;;;;8.28;80.13;98202.29;221613;1274;22532;-73
2023/02/21 02:44:30;;;;;;;3.30;1.70;;;;;;;8.09;80.81;98208.45;221608;1271;22544;-74
2023/02/21 02:49:44;;;;;;;3.80;1.80;;;;;;;7.95;81.50;98207.02;221515;1278;22614;-72
2023/02/21 02:54:58;;;;;;;2.80;1.70;;;;;;;7.85;81.99;98208.10;221628;1277;25329;-74
2023/02/21 03:00:01;;;;;;;3.50;1.90;;;;;;;7.74;82.17;98206.17;221606;1275;24394;-74
2023/02/21 03:05:21;;;;;;;2.30;1.90;;;;;;;7.68;83.22;98210.52;221662;1275;22543;-74
2023/02/21 03:10:58;;;;;;;2.90;2.00;;;;;;;7.61;83.51;98207.70;221614;1273;24318;-74
2023/02/21 03:16:32;;;;;;;4.00;2.10;;;;;;;7.55;84.25;98198.02;221496;1272;22648;-74
2023/02/21 03:21:50;;;;;;;1.90;1.70;;;;;;;7.52;84.10;98198.02;221576;1270;22557;-73
2023/02/21 03:26:59;;;;;;;1.80;1.70;;;;;;;7.51;84.56;98191.67;221602;1275;22790;-73
2023/02/21 03:37:34;;;;;;;2.00;1.60;;;;;;;7.49;85.69;98209.98;221509;1271;25284;-73
2023/02/21 03:42:40;;;;;;;1.70;1.60;;;;;;;7.47;86.19;98207.09;221685;1275;22540;-75
2023/02/21 03:47:43;;;;;;;2.80;1.70;;;;;;;7.43;86.51;98206.96;221613;1275;22491;-72
2023/02/21 03:52:46;;;;;;;2.30;1.60;;;;;;;7.39;86.50;98208.50;221478;1275;22547;-73
2023/02/21 03:57:50;;;;;;;2.40;1.40;;;;;;;7.35;86.72;98204.51;221466;1275;22539;-74
2023/02/21 04:02:53;;;;;;;1.70;1.60;;;;;;;7.30;86.22;98201.29;222144;1276;24272;-74
2023/02/21 04:08:08;;;;;;;1.60;1.40;;;;;;;7.30;86.43;98198.93;221464;1277;24405;-72
2023/02/21 04:13:12;;;;;;;1.60;1.30;;;;;;;7.30;87.01;98190.89;221672;1270;24475;-73
2023/02/21 04:18:18;;;;;;;5.00;3.00;;;;;;;7.30;86.50;98190.52;221644;1276;22652;-73
2023/02/21 04:23:24;;;;;;;1.70;1.40;;;;;;;7.30;86.80;98190.16;221596;1274;22550;-72
2023/02/21 04:28:27;;;;;;;3.20;1.80;;;;;;;7.31;86.85;98193.54;221721;1278;27276;-72
2023/02/21 04:33:30;;;;;;;2.30;1.40;;;;;;;7.32;86.90;98194.81;221694;1270;22540;-73
2023/02/21 04:38:32;;;;;;;3.20;1.80;;;;;;;7.33;87.12;98201.17;221612;1274;22533;-73
2023/02/21 04:43:35;;;;;;;2.50;1.60;;;;;;;7.34;87.12;98198.27;221536;1276;25358;-74
2023/02/21 04:48:37;;;;;;;2.60;1.40;;;;;;;7.35;87.08;98192.95;221469;1276;23132;-73
2023/02/21 04:53:40;;;;;;;1.60;1.40;;;;;;;7.36;86.84;98190.59;221643;1270;22547;-73
2023/02/21 04:58:42;;;;;;;2.40;2.20;;;;;;;7.39;86.94;98198.02;221659;1275;22656;-73
2023/02/21 05:03:47;;;;;;;1.80;1.60;;;;;;;7.41;86.90;98200.20;221558;1272;22556;-74
2023/02/21 05:08:51;;;;;;;1.80;1.50;;;;;;;7.43;86.67;98199.14;221611;1273;22579;-73
2023/02/21 05:13:53;;;;;;;2.40;1.50;;;;;;;7.45;86.78;98201.71;221523;1274;23186;-73
2023/02/21 05:18:56;;;;;;;2.30;1.70;;;;;;;7.46;87.13;98204.77;221368;1278;22540;-74
2023/02/21 05:23:58;;;;;;;3.90;2.10;;;;;;;7.46;86.95;98204.23;221676;1273;24241;-76
2023/02/21 05:29:04;;;;;;;3.00;2.10;;;;;;;7.43;87.28;98211.64;221443;1276;22547;-74
2023/02/21 05:34:09;;;;;;;3.20;2.20;;;;;;;7.41;87.17;98221.63;221519;1277;22668;-73
2023/02/21 05:39:15;;;;;;;2.10;1.70;;;;;;;7.39;87.46;98222.54;221534;1277;25416;-73
2023/02/21 05:44:17;;;;;;;3.30;2.30;;;;;;;7.35;87.46;98222.10;221691;1278;22765;-73
2023/02/21 05:49:20;;;;;;;2.10;1.90;;;;;;;7.32;87.53;98220.55;221636;1274;23870;-74
2023/02/21 05:54:22;;;;;;;2.40;2.00;;;;;;;7.29;88.25;98221.68;221534;1276;23763;-73
2023/02/21 05:59:27;;;;;;;2.90;2.00;;;;;;;7.27;88.19;98225.38;221472;1277;22534;-74
2023/02/21 06:04:30;;;;;;;2.00;1.80;;;;;;;7.26;88.23;98221.58;221534;1272;24117;-74
2023/02/21 06:09:33;;;;;;;3.60;2.10;;;;;;;7.26;88.39;98219.36;221529;1277;25355;-73
2023/02/21 06:14:38;;;;;;;2.20;2.00;;;;;;;7.27;88.42;98223.80;221546;1278;22703;-72
2023/02/21 06:19:58;;;;;;;;;;;;;;;7.29;88.23;98226.63;221702;1260;22508;-73
2023/02/21 06:25:11;;;;;;;2.10;1.90;;;;;;;7.34;88.04;98234.21;221613;1274;22547;-74
2023/02/21 06:30:14;;;;;;;2.10;1.90;;;;;;;7.38;88.37;98237.23;221650;1275;22743;-73
2023/02/21 06:35:17;;;;;;;2.70;1.90;;;;;;;7.43;88.09;98240.80;221923;1262;22752;-74
2023/02/21 06:40:20;;;;;;;3.20;1.80;;;;;;;7.50;88.24;98253.19;221944;1271;25971;-75
2023/02/21 06:45:22;;;;;;;2.80;2.30;;;;;;;7.55;88.44;98249.75;222002;1271;22530;-72
2023/02/21 06:50:26;;;;;;;3.10;2.30;;;;;;;7.62;88.53;98257.80;221929;1270;22574;-74
2023/02/21 06:55:29;;;;;;;2.30;1.80;;;;;;;7.69;88.01;98253.63;222661;1258;22591;-74
2023/02/21 07:00:34;;;;;;;2.40;2.10;;;;;;;7.75;88.13;98252.03;222216;1270;22884;-73
2023/02/21 07:05:37;;;;;;;4.10;2.70;;;;;;;7.86;88.30;98263.41;222372;1264;23757;-73
2023/02/21 07:10:40;;;;;;;2.10;1.80;;;;;;;7.93;88.32;98263.98;222173;1255;139520;-72
2023/02/21 07:15:43;;;;;;;2.40;1.90;;;;;;;7.96;88.08;98273.02;222100;1269;138487;-73
2023/02/21 07:20:46;;;;;;;2.30;2.10;;;;;;;8.05;87.99;98281.57;221837;1270;138823;-74
2023/02/21 07:26:01;;;;;;;2.80;2.60;;;;;;;8.12;88.01;98291.55;221804;1258;138967;-73
2023/02/21 07:31:03;;;;;;;3.40;1.90;;;;;;;8.13;88.19;98288.95;221966;1258;138861;-73
2023/02/21 07:36:07;;;;;;;2.80;2.00;;;;;;;8.18;87.69;98296.38;221921;1271;138528;-73
2023/02/21 07:41:09;;;;;;;3.50;2.00;;;;;;;8.19;87.65;98293.63;222097;1271;22560;-73
2023/02/21 07:46:13;;;;;;;5.90;1.80;;;;;;;8.27;87.96;98292.81;222113;1262;138446;-74
2023/02/21 07:51:21;;;;;;;7.20;2.30;;;;;;;8.37;87.50;98291.41;222042;1254;138726;-74
2023/02/21 07:56:24;;;;;;;2.50;2.00;;;;;;;8.61;87.88;98299.00;222192;1256;138911;-74
2023/02/21 08:01:37;;;;;;;4.20;2.00;;;;;;;8.73;87.85;98305.08;222102;1267;24215;-73
2023/02/21 08:06:40;;;;;;;3.30;1.70;;;;;;;8.81;87.48;98297.98;222100;1270;25398;-73
2023/02/21 08:11:42;;;;;;;1.80;1.50;;;;;;;8.85;87.39;98298.11;221927;1262;25377;-73
2023/02/21 08:16:47;;;;;;;2.60;1.40;;;;;;;8.99;87.31;98292.79;221948;1262;23765;-74
2023/02/21 08:21:50;;;;;;;2.20;1.60;;;;;;;9.06;87.28;98295.00;221968;1271;24196;-72
2023/02/21 08:26:55;;;;;;;1.90;1.40;;;;;;;9.12;87.09;98298.65;222038;1270;22708;-74
2023/02/21 08:32:02;;;;;;;2.60;1.80;;;;;;;9.24;86.81;98300.69;221917;1275;25384;-73
2023/02/21 08:37:13;;;;;;;2.30;1.90;;;;;;;9.36;86.54;98290.20;221813;1264;24928;-72
2023/02/21 08:42:15;;;;;;;1.90;1.60;;;;;;;9.48;86.43;98303.14;221872;1262;24640;-73
2023/02/21 08:47:18;;;;;;;1.50;1.40;;;;;;;9.59;86.10;98299.80;222190;1270;25152;-72
2023/02/21 08:52:20;;;;;;;1.60;1.20;;;;;;;9.73;86.12;98299.61;222066;1265;23880;-73
2023/02/21 08:57:23;;;;;;;1.50;1.20;;;;;;;9.84;85.27;98308.91;222024;1259;24212;-75
2023/02/21 09:02:27;;;;;;;2.30;1.70;;;;;;;9.83;85.27;98324.82;222113;1266;24182;-73
2023/02/21 09:07:32;;;;;;;2.90;1.80;;;;;;;9.83;85.11;98324.73;222061;1274;22663;-73
2023/02/21 09:12:40;;;;;;;3.70;2.10;;;;;;;9.94;84.88;98310.77;221920;1270;23166;-74
2023/02/21 09:17:51;;;;;;;2.30;1.90;;;;;;;10.04;84.51;98310.17;222014;1267;25330;-75
2023/02/21 09:23:05;;;;;;;2.50;2.20;;;;;;;10.01;83.78;98319.69;221865;1270;22567;-73
2023/02/21 09:28:16;;;;;;;3.30;3.00;;;;;;;9.95;83.66;98333.14;221909;1271;23355;-74
2023/02/21 09:33:18;;;;;;;3.40;2.60;;;;;;;9.92;83.57;98341.62;223012;1271;22785;-75
2023/02/21 09:38:24;;;;;;;3.60;3.00;;;;;;;9.92;83.37;98334.67;221944;1278;22567;-74
2023/02/21 09:43:44;;;;;;;2.60;2.40;;;;;;;9.96;83.23;98338.77;222022;1270;24129;-74
2023/02/21 09:48:47;;;;;;;;;;;;;;;9.99;83.12;98340.21;221953;1275;25357;-75
2023/02/21 09:53:54;;;;;;;2.90;2.30;;;;;;;9.96;82.90;98339.39;222270;1271;22722;-73
2023/02/21 09:58:57;;;;;;;2.50;2.30;;;;;;;9.95;83.19;98342.27;221980;1270;24270;-73
2023/02/21 10:04:16;;;;;;;2.60;2.40;;;;;;;9.94;83.17;98341.42;221963;1256;24219;-73
2023/02/21 10:09:51;;;;;;;2.50;2.30;;;;;;;9.95;83.06;98339.71;222132;1254;25495;-73
2023/02/21 10:15:37;;;;;;;2.70;2.50;;;;;;;10.09;83.46;98351.27;222189;1274;25367;-73
2023/02/21 10:20:53;;;;;;;2.50;2.30;;;;;;;10.19;82.76;98357.20;221686;1274;22526;-73
2023/02/21 10:26:06;;;;;;;2.70;2.30;;;;;;;10.16;82.92;98351.55;221767;1275;24355;-73
2023/02/21 10:31:17;;;;;;;3.90;3.00;;;;;;;10.15;82.99;98352.36;221812;1270;23751;-73
2023/02/21 10:36:21;;;;;;;3.90;2.50;;;;;;;10.23;83.13;98353.33;221974;1271;24147;-73
2023/02/21 10:41:30;;;;;;;2.80;2.00;;;;;;;10.28;82.62;98358.51;221854;1277;22530;-73
2023/02/21 10:46:42;;;;;;;2.10;1.90;;;;;;;10.39;82.46;98348.41;221697;1266;22536;-74
2023/02/21 10:52:12;;;;;;;2.70;2.50;;;;;;;10.59;82.28;98348.36;222092;1271;22537;-73
2023/02/21 10:57:16;;;;;;;2.30;1.90;;;;;;;10.76;82.02;98347.30;221959;1270;22714;-73
2023/02/21 11:02:32;;;;;;;2.30;1.90;;;;;;;10.87;81.56;98353.95;222104;1271;22598;-79
2023/02/21 11:07:35;;;;;;;1.90;1.70;;;;;;;10.84;81.27;98359.36;222094;1258;22555;-78
2023/02/21 11:12:37;;;;;;;2.80;2.50;;;;;;;10.77;80.88;98366.17;221724;1271;304427;-78
2023/02/21 11:17:41;;;;;;;2.70;2.40;;;;;;;10.59;81.38;98368.88;221810;1271;22533;-77
2023/02/21 11:22:58;;;;;;;4.20;3.40;;;;;;;10.40;81.78;98373.31;221715;1278;22721;-77
2023/02/21 11:28:14;;;;;;;3.90;3.10;;;;;;;10.41;82.44;98368.30;221900;1265;22592;-78
2023/02/21 11:33:21;;;;;;;3.70;3.40;;;;;;;10.47;82.03;98376.48;221823;1274;25423;-79
2023/02/21 11:38:37;;;;;;;4.20;3.50;;;;;;;10.46;81.80;98385.41;222004;1258;22540;-78
2023/02/21 11:44:07;;;;;;;3.50;2.60;;;;;;;10.40;81.60;98395.94;222047;1274;24124;-78
2023/02/21 11:49:58;;;;;;;2.20;1.70;;;;;;;10.46;81.41;98396.38;221916;1273;25398;-80
2023/02/21 11:55:03;;;;;;;1.90;1.70;;;;;;;10.58;80.90;98386.27;221941;1277;25438;-77
2023/02/21 12:00:22;;;;;;;2.10;1.70;;;;;;;10.79;81.09;98368.85;221857;1268;25416;-77
2023/02/21 12:05:47;;;;;;;1.50;1.40;;;;;;;10.89;79.32;98369.16;221787;1274;22545;-77
2023/02/21 12:11:15;;;;;;;2.20;1.70;;;;;;;10.86;77.86;98376.96;221920;1275;24113;-78
2023/02/21 12:17:03;;;;;;;2.30;1.70;;;;;;;10.77;78.28;98373.41;221836;1274;22536;-78
2023/02/21 12:22:23;;;;;;;2.60;1.80;;;;;;;10.79;78.29;98373.01;221359;1278;24271;-78
2023/02/21 12:27:46;;;;;;;2.10;1.70;;;;;;;10.75;78.70;98377.66;221980;1262;22541;-78
2023/02/21 12:32:53;;;;;;;2.70;1.60;;;;;;;10.64;79.57;98380.31;221930;1266;22597;-78
2023/02/21 12:38:35;;;;;;;2.80;2.40;;;;;;;10.38;80.07;98387.28;221860;1278;22548;-79
2023/02/21 12:43:54;;;;;;;1.80;1.40;;;;;;;9.97;81.34;98400.13;222016;1260;25298;-78
2023/02/21 12:49:05;;;;;;;2.80;2.00;;;;;;;9.69;82.55;98393.48;222034;1271;22582;-78
2023/02/21 12:54:17;;;;;;;2.10;1.90;;;;;;;9.49;83.26;98393.01;222014;1263;23392;-78
2023/02/21 12:59:50;;;;;;;2.80;2.60;;;;;;;9.36;84.18;98395.56;221774;1274;23454;-79
2023/02/21 13:05:06;;;;;;;2.80;2.40;;;;;;;9.28;84.37;98395.55;222161;1256;22530;-79
2023/02/21 13:10:23;;;;;;;3.60;2.30;;;;;;;9.13;84.50;98381.38;221812;1264;23457;-78
2023/02/21 13:15:28;;;;;;;4.00;2.50;;;;;;;9.18;85.26;98380.98;222062;1274;24242;-79
2023/02/21 13:20:57;;;;;;;2.80;2.60;;;;;;;9.29;85.57;98373.00;222293;1270;22572;-79
2023/02/21 13:26:48;;;;;;;3.30;2.30;;;;;;;9.40;85.54;98373.54;222086;1270;22758;-80
2023/02/21 13:32:15;;;;;;;3.30;2.60;;;;;;;9.46;84.91;98376.23;221751;1272;23732;-80
2023/02/21 13:37:21;;;;;;;2.40;2.00;;;;;;;9.46;84.72;98390.77;221846;1273;23535;-81
2023/02/21 13:42:28;;;;;;;3.50;2.30;;;;;;;9.32;84.56;98404.22;221875;1273;22570;-80
2023/02/21 13:47:56;;;;;;;2.50;2.00;;;;;;;9.22;84.85;98405.98;221795;1274;25014;-79
2023/02/21 13:53:12;;;;;;;3.50;2.30;;;;;;;9.16;85.46;98404.04;221896;1262;25236;-78
2023/02/21 13:58:14;;;;;;;2.60;2.20;;;;;;;9.13;85.70;98395.45;221853;1270;22580;-79
2023/02/21 14:03:18;;;;;;;3.00;2.60;;;;;;;9.22;86.47;98399.33;222048;1274;22530;-78
2023/02/21 14:08:26;;;;;;;2.70;2.50;;;;;;;9.35;86.03;98401.36;222434;1263;25469;-79
2023/02/21 14:13:37;;;;;;;2.70;2.50;;;;;;;9.45;85.81;98391.16;222119;1270;23323;-76
2023/02/21 14:18:39;;;;;;;3.30;2.70;;;;;;;9.58;85.75;98381.97;221875;1268;25449;-79
2023/02/21 14:24:04;;;;;;;3.20;2.30;;;;;;;9.68;85.38;98380.01;221903;1265;22534;-79
2023/02/21 14:29:11;;;;;;;4.00;2.40;;;;;;;9.74;84.64;98390.23;221655;1278;22546;-78
2023/02/21 14:34:21;;;;;;;3.90;2.70;;;;;;;9.79;84.77;98390.92;221903;1270;22571;-79
2023/02/21 14:39:32;;;;;;;3.00;1.90;;;;;;;9.77;84.22;98399.98;221791;1265;22535;-79
2023/02/21 14:44:47;;;;;;;;;;;;;;;9.69;83.44;98389.91;221925;1268;22527;-78
2023/02/21 14:50:22;;;;;;;2.90;2.10;;;;;;;9.65;83.72;98381.97;221704;1275;24295;-78
2023/02/21 14:55:52;;;;;;;5.30;3.50;;;;;;;9.67;84.06;98382.92;221957;1258;25458;-78
2023/02/21 15:01:32;;;;;;;5.70;4.70;;;;;;;9.86;84.41;98393.81;221862;1270;24375;-79
2023/02/21 15:06:39;;;;;;;5.40;4.50;;;;;;;10.06;83.96;98395.73;221717;1275;22553;-81
2023/02/21 15:11:47;;;;;;;4.10;3.70;;;;;;;10.19;83.65;98397.37;221726;1278;22556;-81
2023/02/21 15:16:59;;;;;;;3.30;3.00;;;;;;;10.27;82.93;98401.07;221484;1259;24478;-81
2023/02/21 15:22:21;;;;;;;4.10;3.50;;;;;;;10.31;82.34;98403.81;222429;1274;22534;-80
2023/02/21 15:27:27;;;;;;;5.70;3.40;;;;;;;10.26;81.57;98409.07;221591;1267;24362;-80
2023/02/21 15:32:32;;;;;;;3.80;3.40;;;;;;;10.17;81.49;98413.91;221700;1278;22539;-80
2023/02/21 15:37:38;;;;;;;3.00;2.70;;;;;;;10.07;81.05;98420.10;221651;1278;24223;-80
2023/02/21 15:42:42;;;;;;;3.60;2.70;;;;;;;9.95;81.19;98422.94;222394;1278;22657;-80
2023/02/21 15:47:45;;;;;;;4.90;2.80;;;;;;;9.81;81.42;98429.21;221491;1275;25341;-80
2023/02/21 15:52:52;;;;;;;3.60;2.80;;;;;;;9.68;81.23;98432.77;221722;1274;24232;-80
2023/02/21 15:58:05;;;;;;;3.60;2.90;;;;;;;9.59;81.90;98438.66;222484;1278;25524;-80
2023/02/21 16:03:34;;;;;;;5.80;4.50;;;;;;;9.52;81.67;98445.32;221605;1275;23047;-82
2023/02/21 16:08:49;;;;;;;3.80;2.40;;;;;;;9.46;81.69;98453.44;221611;1269;24607;-80
2023/02/21 16:13:51;;;;;;;3.40;2.80;;;;;;;9.42;81.73;98460.98;221606;1275;23146;-80
2023/02/21 16:19:04;;;;;;;3.40;2.50;;;;;;;9.38;81.74;98466.60;222347;1255;24247;-80
2023/02/21 16:24:37;;;;;;;3.00;2.50;;;;;;;9.33;82.01;98470.38;222318;1274;22736;-81
2023/02/21 16:29:49;;;;;;;4.00;3.50;;;;;;;9.26;81.82;98477.69;221623;1278;22596;-80
2023/02/21 16:34:54;;;;;;;3.70;2.70;;;;;;;9.20;81.96;98478.48;221581;1274;24237;-80
2023/02/21 16:40:00;;;;;;;2.90;2.60;;;;;;;9.14;81.78;98479.84;221636;1278;22636;-80
2023/02/21 16:45:05;;;;;;;4.20;3.70;;;;;;;9.06;81.82;98479.69;221488;1278;22543;-80
2023/02/21 16:50:48;;;;;;;3.90;2.90;;;;;;;8.92;82.09;98490.29;221490;1276;24795;-80
2023/02/21 16:55:51;;;;;;;4.50;3.50;;;;;;;8.76;82.61;98496.13;221603;1278;22550;-81
2023/02/21 17:00:59;;;;;;;6.70;4.10;;;;;;;8.63;82.41;98498.73;221680;1278;22688;-80
2023/02/21 17:06:03;;;;;;;6.90;4.70;;;;;;;8.50;82.90;98507.48;221655;1274;24357;-79
2023/02/21 17:11:06;;;;;;;6.50;5.10;;;;;;;8.37;82.70;98516.60;221616;1275;22557;-80
2023/02/21 17:16:09;;;;;;;9.60;7.50;;;;;;;8.27;82.75;98519.87;221609;1275;23836;-80
2023/02/21 17:21:11;;;;;;;11.90;9.30;;;;;;;8.20;83.35;98522.96;221583;1275;22567;-80
2023/02/21 17:26:21;;;;;;;11.20;9.10;;;;;;;8.13;83.45;98530.39;221391;1278;22851;-80
2023/02/21 17:31:27;;;;;;;10.40;8.40;;;;;;;8.10;83.59;98533.17;221603;1275;23926;-81
2023/02/21 17:36:30;;;;;;;10.00;7.60;;;;;;;8.08;84.00;98538.52;221547;1275;25369;-80
2023/02/21 17:41:33;;;;;;;8.30;6.80;;;;;;;8.08;84.43;98533.74;221436;1277;22594;-80
2023/02/21 17:46:35;;;;;;;9.40;6.40;;;;;;;8.03;84.10;98535.60;221582;1278;23957;-79
2023/02/21 17:51:38;;;;;;;10.00;7.10;;;;;;;7.96;83.92;98538.86;221472;1278;22548;-80
2023/02/21 17:56:41;;;;;;;10.60;8.10;;;;;;;7.93;84.43;98542.10;221617;1278;23017;-80
2023/02/21 18:01:54;;;;;;;8.70;7.80;;;;;;;7.88;84.35;98542.92;221538;1278;22554;-79
2023/02/21 18:06:58;;;;;;;12.80;8.90;;;;;;;7.83;84.19;98544.07;221635;1278;22538;-80
2023/02/21 18:12:04;;;;;;;10.80;8.70;;;;;;;7.77;84.61;98543.91;221651;1278;24286;-80
2023/02/21 18:17:10;;;;;;;10.50;8.20;;;;;;;7.71;84.45;98549.23;221569;1276;22658;-80
2023/02/21 18:22:13;;;;;;;12.10;9.80;;;;;;;7.68;84.74;98550.42;221566;1275;24270;-81
2023/02/21 18:27:16;;;;;;;12.90;9.20;;;;;;;7.61;84.74;98553.97;221628;1278;22981;-80
2023/02/21 18:32:27;;;;;;;11.80;8.50;;;;;;;7.57;84.69;98562.39;222256;1278;22536;-80
2023/02/21 18:37:32;;;;;;;14.50;10.10;;;;;;;7.58;84.77;98561.84;221494;1261;22735;-81
2023/02/21 18:42:35;;;;;;;13.30;9.10;;;;;;;7.57;84.90;98562.87;221664;1278;23959;-81
2023/02/21 18:47:37;;;;;;;9.80;7.10;;;;;;;7.54;85.20;98566.58;221681;1270;22500;-79
2023/02/21 18:52:42;;;;;;;7.70;6.00;;;;;;;7.52;85.08;98564.65;221693;1276;25441;-80
2023/02/21 18:57:46;;;;;;;10.30;7.10;;;;;;;7.53;85.20;98573.73;221574;1278;24323;-80
2023/02/21 19:02:49;;;;;;;11.70;8.00;;;;;;;7.53;85.14;98584.48;222429;1278;24242;-81
2023/02/21 19:07:52;;;;;;;8.90;6.90;;;;;;;7.55;85.16;98598.52;221471;1278;24293;-81
2023/02/21 19:12:58;;;;;;;10.60;6.60;;;;;;;7.60;85.57;98606.79;222369;1277;23362;-79
2023/02/21 19:18:00;;;;;;;9.10;3.50;;;;;;;7.64;84.67;98622.27;221644;1277;24288;-80
2023/02/21 19:23:02;;;;;;;11.20;4.00;;;;;;;7.63;82.97;98630.14;221626;1278;22558;-79
2023/02/21 19:28:05;;;;;;;13.10;4.40;;;;;;;7.58;82.02;98631.73;221482;1278;25464;-80
2023/02/21 19:33:08;;;;;;;16.30;5.50;;;;;;;7.47;81.53;98636.73;221563;1271;25313;-80
2023/02/21 19:38:13;;;;;;;11.50;4.50;;;;;;;7.27;81.26;98643.71;222239;1278;22605;-80
2023/02/21 19:43:15;;;;;;;12.70;4.10;;;;;;;7.06;81.35;98655.69;222370;1278;24187;-81
2023/02/21 19:48:20;;;;;;;13.50;6.00;;;;;;;6.87;81.55;98657.79;221598;1276;25341;-81
2023/02/21 19:53:23;;;;;;;15.00;6.40;;;;;;;6.69;81.67;98661.45;222397;1275;25377;-79
2023/02/21 19:58:26;;;;;;;22.50;7.00;;;;;;;6.56;81.59;98667.59;221658;1276;24244;-81
2023/02/21 20:03:28;;;;;;;16.30;6.20;;;;;;;6.44;81.45;98667.02;221517;1273;22612;-80
2023/02/21 20:08:31;;;;;;;16.60;5.70;;;;;;;6.31;82.01;98666.83;221582;1276;22530;-81
2023/02/21 20:13:35;;;;;;;18.60;5.80;;;;;;;6.19;81.70;98672.66;221671;1278;25310;-80
2023/02/21 20:18:37;;;;;;;18.80;6.00;;;;;;;6.07;81.93;98678.64;221721;1278;25247;-79
2023/02/21 20:23:41;;;;;;;17.90;6.70;;;;;;;5.96;81.81;98684.69;221595;1277;23933;-80
2023/02/21 20:28:48;;;;;;;19.80;7.50;;;;;;;5.84;81.89;98683.16;221588;1278;23308;-80
2023/02/21 20:34:13;;;;;;;18.20;6.40;;;;;;;5.71;82.15;98685.69;221868;1278;22731;-80
2023/02/21 20:39:27;;;;;;;21.20;8.90;;;;;;;5.59;82.24;98685.03;221861;1281;25423;-80
2023/02/21 20:44:36;;;;;;;26.60;9.60;;;;;;;5.49;82.47;98692.94;221016;1277;25273;-80
2023/02/21 20:49:44;;;;;;;23.90;8.70;;;;;;;5.38;82.60;98695.48;221021;1276;22585;-79
2023/02/21 20:54:46;;;;;;;17.70;7.30;;;;;;;5.27;82.92;98702.15;221134;1280;22589;-80
2023/02/21 20:59:48;;;;;;;15.60;7.50;;;;;;;5.22;82.96;98711.58;221156;1274;22552;-79
2023/02/21 21:04:53;;;;;;;19.80;7.60;;;;;;;5.21;83.06;98716.21;221086;1281;22561;-79
2023/02/21 21:10:05;;;;;;;16.60;7.30;;;;;;;5.20;83.40;98718.40;221264;1277;24305;-79
2023/02/21 21:15:13;;;;;;;22.40;9.50;;;;;;;5.17;83.02;98716.44;221607;1270;22565;-78
2023/02/21 21:20:19;;;;;;;19.30;8.60;;;;;;;5.15;83.00;98716.85;221658;1273;22545;-78
2023/02/21 21:25:22;;;;;;;29.90;12.70;;;;;;;5.10;83.00;98719.08;221725;1275;22548;-79
2023/02/21 21:30:26;;;;;;;30.00;15.30;;;;;;;5.00;82.84;98722.94;221498;1272;25306;-77
2023/02/21 21:35:28;;;;;;;37.10;18.60;;;;;;;4.87;82.85;98726.45;221588;1277;22579;-78
2023/02/21 21:40:46;;;;;;;35.60;18.00;;;;;;;4.75;82.92;98729.95;221603;1275;22585;-79
2023/02/21 21:45:51;;;;;;;32.70;17.00;;;;;;;4.67;83.13;98732.34;221650;1270;24796;-79
2023/02/21 21:50:54;;;;;;;38.20;19.20;;;;;;;4.59;83.12;98732.53;221502;1278;22698;-78
2023/02/21 21:56:03;;;;;;;38.20;19.10;;;;;;;4.51;83.11;98731.23;221647;1278;22652;-79
2023/02/21 22:01:07;;;;;;;43.50;19.70;;;;;;;4.43;83.24;98740.46;221590;1273;22557;-79
2023/02/21 22:06:09;;;;;;;28.70;16.00;;;;;;;4.39;83.45;98747.33;221622;1276;22535;-79
2023/02/21 22:11:12;;;;;;;36.50;17.00;;;;;;;4.37;83.63;98750.11;221585;1275;25551;-80
2023/02/21 22:16:19;;;;;;;30.90;14.50;;;;;;;4.36;83.73;98751.41;221510;1278;22594;-79
2023/02/21 22:21:22;;;;;;;27.80;13.20;;;;;;;4.35;83.66;98749.40;221651;1275;22540;-79
2023/02/21 22:26:26;;;;;;;25.20;12.70;;;;;;;4.33;83.66;98755.59;221620;1277;25482;-80
2023/02/21 22:31:30;;;;;;;27.10;13.90;;;;;;;4.29;83.70;98762.11;221600;1278;22795;-78
2023/02/21 22:36:45;;;;;;;33.20;15.90;;;;;;;4.25;83.90;98765.37;221553;1274;22550;-79
2023/02/21 22:41:48;;;;;;;37.70;16.70;;;;;;;4.23;83.99;98766.04;221668;1278;25337;-79
2023/02/21 22:46:58;;;;;;;39.40;18.90;;;;;;;4.21;84.01;98771.17;221653;1274;25868;-79
2023/02/21 22:52:02;;;;;;;55.50;23.20;;;;;;;4.20;84.21;98777.23;221668;1278;26266;-79
2023/02/21 22:57:06;;;;;;;47.30;17.80;;;;;;;4.23;84.32;98782.99;221443;1276;24391;-80
2023/02/21 23:02:08;;;;;;;42.00;16.10;;;;;;;4.29;84.26;98781.23;221609;1276;25567;-77
2023/02/21 23:07:11;;;;;;;34.00;14.30;;;;;;;4.35;84.36;98780.68;221556;1272;25242;-79
2023/02/21 23:12:17;;;;;;;31.70;13.30;;;;;;;4.38;84.11;98776.90;221356;1278;330720;-80
2023/02/21 23:17:20;;;;;;;36.00;13.40;;;;;;;4.41;84.03;98784.81;221669;1278;25283;-79
2023/02/21 23:22:23;;;;;;;29.50;13.30;;;;;;;4.41;83.90;98780.79;221566;1260;23225;-79
2023/02/21 23:27:32;;;;;;;29.00;12.40;;;;;;;4.40;83.84;98784.04;221659;1278;24253;-79
2023/02/21 23:32:35;;;;;;;30.30;13.20;;;;;;;4.38;83.68;98782.65;221690;1271;24256;-79
2023/02/21 23:37:41;;;;;;;26.30;12.00;;;;;;;4.37;83.69;98783.79;221501;1272;22567;-79
2023/02/21 23:42:50;;;;;;;23.30;11.70;;;;;;;4.36;83.81;98785.27;221753;1278;24232;-78
2023/02/21 23:47:54;;;;;;;26.20;11.30;;;;;;;4.35;83.55;98782.22;221562;1275;22660;-80
2023/02/21 23:53:01;;;;;;;25.00;11.70;;;;;;;4.30;83.50;98787.27;221627;1276;23206;-79
2023/02/21 23:58:20;;;;;;;24.00;10.70;;;;;;;4.24;83.76;98788.00;221604;1276;24277;-78
